Wetterdaten: Woche 09.08.04 - 15.08.04 (KW33)
Datum Zeit Temperatur Luftfeuchte Luftdruck Regenmenge Wind Richtung Taupunkt Windchill
09.08.2004 00:00 18.5 C 84 % 1010.3 hPa 0.0 l/m 3.7 km/h (1 Bft) O 15.8 C 18.5 C
09.08.2004 01:00 18.0 C 87 % 1010.5 hPa 0.0 l/m 4.2 km/h (1 Bft) O-SO 15.7 C 18.0 C
09.08.2004 02:00 17.1 C 92 % 1010.5 hPa 0.0 l/m 0.9 km/h (0 Bft) O-SO 15.8 C 17.1 C
09.08.2004 03:00 16.5 C 95 % 1010.5 hPa 0.0 l/m 2.5 km/h (1 Bft) O 15.7 C 16.5 C
09.08.2004 04:00 16.0 C 96 % 1010.6 hPa 0.0 l/m 4.8 km/h (1 Bft) O-SO 15.3 C 16.0 C
09.08.2004 05:00 15.5 C 97 % 1011.2 hPa 0.0 l/m 0.0 km/h (0 Bft) N 15.0 C 15.5 C
09.08.2004 06:00 15.3 C 99 % 1011.7 hPa 0.0 l/m 1.2 km/h (1 Bft) O-SO 15.1 C 15.3 C
09.08.2004 07:00 17.0 C 93 % 1011.5 hPa 0.0 l/m 1.9 km/h (1 Bft) O-SO 15.9 C 17.0 C
09.08.2004 08:00 18.5 C 83 % 1011.3 hPa 0.0 l/m 0.7 km/h (0 Bft) W-NW 15.7 C 18.5 C
09.08.2004 09:00 20.8 C 72 % 1011.0 hPa 0.0 l/m 0.9 km/h (0 Bft) O-SO 15.5 C 20.8 C
09.08.2004 10:00 23.3 C 62 % 1011.6 hPa 0.0 l/m 8.7 km/h (2 Bft) O-SO 15.7 C 23.3 C
09.08.2004 11:00 24.7 C 58 % 1010.6 hPa 0.0 l/m 3.3 km/h (1 Bft) O-SO 15.7 C 24.7 C
09.08.2004 12:00 25.4 C 57 % 1010.4 hPa 0.0 l/m 3.6 km/h (1 Bft) O-SO 16.2 C 25.4 C
09.08.2004 13:00 26.1 C 56 % 1010.4 hPa 0.0 l/m 6.4 km/h (2 Bft) O-SO 16.5 C 26.1 C
09.08.2004 14:00 26.8 C 53 % 1010.3 hPa 0.0 l/m 3.2 km/h (1 Bft) O-SO 16.4 C 26.8 C
09.08.2004 15:00 26.4 C 54 % 1010.3 hPa 0.0 l/m 0.1 km/h (0 Bft) N 16.2 C 26.4 C
09.08.2004 16:00 26.4 C 56 % 1010.3 hPa 0.0 l/m 0.0 km/h (0 Bft) N 16.9 C 26.4 C
09.08.2004 17:00 26.8 C 54 % 1010.3 hPa 0.0 l/m 0.4 km/h (0 Bft) O 16.6 C 26.8 C
09.08.2004 18:00 27.4 C 53 % 1010.0 hPa 0.0 l/m 0.2 km/h (0 Bft) O-SO 17.0 C 27.4 C
09.08.2004 19:00 27.0 C 55 % 1009.2 hPa 0.0 l/m 0.0 km/h (0 Bft) N 17.2 C 27.0 C
09.08.2004 20:00 25.0 C 65 % 1009.5 hPa 0.0 l/m 3.3 km/h (1 Bft) O-SO 17.9 C 25.0 C
09.08.2004 21:00 23.0 C 74 % 1010.1 hPa 0.0 l/m 1.3 km/h (1 Bft) O-SO 18.1 C 23.0 C
09.08.2004 22:00 21.1 C 83 % 1011.0 hPa 0.0 l/m 0.0 km/h (0 Bft) N 18.2 C 21.1 C
09.08.2004 23:00 20.0 C 89 % 1011.1 hPa 0.0 l/m 0.0 km/h (0 Bft) N 18.0 C 20.0 C
10.08.2004 00:00 19.0 C 93 % 1011.3 hPa 0.0 l/m 0.0 km/h (0 Bft) N 17.8 C 19.0 C
10.08.2004 01:00 18.2 C 95 % 1011.4 hPa 0.0 l/m 0.0 km/h (0 Bft) N 17.3 C 18.2 C
10.08.2004 02:00 17.8 C 96 % 1011.1 hPa 0.0 l/m 0.0 km/h (0 Bft) N 17.1 C 17.8 C
10.08.2004 03:00 17.2 C 95 % 1010.5 hPa 0.0 l/m 0.0 km/h (0 Bft) N 16.3 C 17.2 C
10.08.2004 04:00 16.5 C 94 % 1010.5 hPa 0.0 l/m 0.0 km/h (0 Bft) N 15.6 C 16.5 C
10.08.2004 05:00 16.2 C 92 % 1010.6 hPa 0.0 l/m 0.6 km/h (0 Bft) O 14.9 C 16.2 C
10.08.2004 06:00 16.0 C 92 % 1010.6 hPa 0.0 l/m 0.0 km/h (0 Bft) N 14.8 C 16.0 C
10.08.2004 07:00 17.8 C 88 % 1011.4 hPa 0.0 l/m 0.4 km/h (0 Bft) O 15.7 C 17.8 C
10.08.2004 08:00 19.6 C 79 % 1011.8 hPa 0.0 l/m 0.3 km/h (0 Bft) O 15.8 C 19.6 C
10.08.2004 09:00 22.0 C 62 % 1011.7 hPa 0.0 l/m 2.4 km/h (1 Bft) O-SO 14.3 C 22.0 C
10.08.2004 10:00 23.3 C 55 % 1010.8 hPa 0.0 l/m 1.9 km/h (1 Bft) O 13.8 C 23.3 C
10.08.2004 11:00 23.9 C 55 % 1011.6 hPa 0.0 l/m 0.9 km/h (0 Bft) O-SO 14.2 C 23.9 C
10.08.2004 12:00 25.0 C 50 % 1011.5 hPa 0.0 l/m 1.7 km/h (1 Bft) W-NW 13.8 C 25.0 C
10.08.2004 13:00 26.3 C 49 % 1011.4 hPa 0.0 l/m 1.2 km/h (1 Bft) W-NW 14.5 C 26.3 C
10.08.2004 14:00 28.0 C 45 % 1011.1 hPa 0.0 l/m 0.7 km/h (0 Bft) W-NW 14.9 C 28.0 C
10.08.2004 15:00 28.6 C 43 % 1010.5 hPa 0.0 l/m 1.5 km/h (1 Bft) W 14.8 C 28.6 C
10.08.2004 16:00 28.6 C 44 % 1010.0 hPa 0.0 l/m 0.7 km/h (0 Bft) W-NW 15.0 C 28.6 C
10.08.2004 17:00 28.2 C 45 % 1010.0 hPa 0.0 l/m 11.8 km/h (2 Bft) W-NW 14.9 C 28.2 C
10.08.2004 18:00 26.7 C 50 % 1009.4 hPa 0.0 l/m 12.0 km/h (2 Bft) W-NW 15.4 C 26.7 C
10.08.2004 19:00 24.3 C 58 % 1010.6 hPa 0.0 l/m 21.8 km/h (4 Bft) W-NW 15.5 C 24.3 C
10.08.2004 20:00 21.4 C 83 % 1010.9 hPa 0.3 l/m 4.0 km/h (1 Bft) NW 18.4 C 21.4 C
10.08.2004 21:00 20.8 C 92 % 1011.0 hPa 0.0 l/m 0.6 km/h (0 Bft) O-NO 19.5 C 20.8 C
10.08.2004 22:00 20.7 C 93 % 1011.9 hPa 0.0 l/m 0.7 km/h (0 Bft) W 19.4 C 20.7 C
10.08.2004 23:00 20.3 C 94 % 1012.7 hPa 1.5 l/m 15.9 km/h (3 Bft) W-NW 19.3 C 20.3 C
11.08.2004 00:00 19.3 C 99 % 1013.3 hPa 8.4 l/m 12.7 km/h (3 Bft) NW 19.1 C 19.3 C
11.08.2004 01:00 18.9 C 100 % 1013.3 hPa 0.9 l/m 0.6 km/h (0 Bft) O 18.9 C 18.9 C
11.08.2004 02:00 18.7 C 100 % 1013.4 hPa 0.3 l/m 1.2 km/h (1 Bft) O-SO 18.7 C 18.7 C
11.08.2004 03:00 18.7 C 100 % 1013.4 hPa 0.3 l/m 0.2 km/h (0 Bft) O-SO 18.7 C 18.7 C
11.08.2004 04:00 18.6 C 100 % 1013.4 hPa 0.0 l/m 0.0 km/h (0 Bft) N 18.6 C 18.6 C
11.08.2004 05:00 18.6 C 100 % 1013.4 hPa 0.0 l/m 0.0 km/h (0 Bft) N 18.6 C 18.6 C
11.08.2004 06:00 18.5 C 100 % 1013.4 hPa 0.0 l/m 0.0 km/h (0 Bft) O-SO 18.5 C 18.5 C
11.08.2004 07:00 18.8 C 100 % 1013.4 hPa 0.3 l/m 0.7 km/h (0 Bft) O-SO 18.8 C 18.8 C
11.08.2004 08:00 19.6 C 100 % 1013.3 hPa 0.0 l/m 0.0 km/h (0 Bft) N 19.6 C 19.6 C
11.08.2004 09:00 20.0 C 100 % 1013.4 hPa 0.3 l/m 0.0 km/h (0 Bft) N 20.0 C 20.0 C
11.08.2004 10:00 21.0 C 93 % 1014.1 hPa 0.0 l/m 0.4 km/h (0 Bft) W 19.7 C 21.0 C
11.08.2004 11:00 22.0 C 79 % 1014.0 hPa 0.0 l/m 5.1 km/h (1 Bft) W-NW 18.1 C 22.0 C
11.08.2004 12:00 23.8 C 65 % 1012.9 hPa 0.0 l/m 8.8 km/h (2 Bft) W-NW 16.8 C 23.8 C
11.08.2004 13:00 25.4 C 59 % 1012.8 hPa 0.0 l/m 8.8 km/h (2 Bft) W-NW 16.7 C 25.4 C
11.08.2004 14:00 26.3 C 53 % 1012.4 hPa 0.0 l/m 7.7 km/h (2 Bft) W-NW 15.8 C 26.3 C
11.08.2004 15:00 26.8 C 51 % 1012.3 hPa 0.0 l/m 2.8 km/h (1 Bft) W 15.8 C 26.8 C
11.08.2004 16:00 28.1 C 46 % 1011.7 hPa 0.0 l/m 3.1 km/h (1 Bft) SO 15.3 C 28.1 C
11.08.2004 17:00 28.6 C 45 % 1011.1 hPa 0.0 l/m 5.8 km/h (2 Bft) W-NW 15.6 C 28.6 C
11.08.2004 18:00 27.7 C 46 % 1011.2 hPa 0.0 l/m 2.6 km/h (1 Bft) W-NW 15.2 C 27.7 C
11.08.2004 19:00 26.8 C 53 % 1011.3 hPa 0.0 l/m 1.9 km/h (1 Bft) W 16.3 C 26.8 C
11.08.2004 20:00 24.6 C 62 % 1011.6 hPa 0.0 l/m 0.9 km/h (0 Bft) SO 16.9 C 24.6 C
11.08.2004 21:00 21.9 C 76 % 1011.9 hPa 0.0 l/m 2.9 km/h (1 Bft) O-SO 17.5 C 21.9 C
11.08.2004 22:00 20.1 C 85 % 1012.2 hPa 0.0 l/m 2.4 km/h (1 Bft) O-SO 17.4 C 20.1 C
11.08.2004 23:00 19.0 C 91 % 1012.3 hPa 0.0 l/m 1.6 km/h (1 Bft) O-SO 17.4 C 19.0 C
12.08.2004 00:00 18.4 C 94 % 1012.4 hPa 0.0 l/m 0.0 km/h (0 Bft) N 17.4 C 18.4 C
12.08.2004 01:00 17.8 C 97 % 1012.4 hPa 0.0 l/m 2.2 km/h (1 Bft) O-SO 17.3 C 17.8 C
12.08.2004 02:00 17.4 C 98 % 1012.5 hPa 0.0 l/m 0.9 km/h (0 Bft) O-SO 17.1 C 17.4 C
12.08.2004 03:00 16.6 C 99 % 1012.0 hPa 0.0 l/m 0.0 km/h (0 Bft) N 16.4 C 16.6 C
12.08.2004 04:00 16.4 C 100 % 1012.0 hPa 0.0 l/m 0.0 km/h (0 Bft) N 16.3 C 16.4 C
12.08.2004 05:00 16.6 C 100 % 1011.6 hPa 0.0 l/m 0.0 km/h (0 Bft) N 16.6 C 16.6 C
12.08.2004 06:00 16.6 C 100 % 1011.6 hPa 0.0 l/m 0.0 km/h (0 Bft) N 16.6 C 16.6 C
12.08.2004 07:00 17.4 C 99 % 1011.5 hPa 0.0 l/m 0.0 km/h (0 Bft) N 17.3 C 17.4 C
12.08.2004 08:00 18.8 C 92 % 1011.0 hPa 0.0 l/m 0.0 km/h (0 Bft) N 17.5 C 18.8 C
12.08.2004 09:00 20.3 C 84 % 1010.0 hPa 0.0 l/m 0.0 km/h (0 Bft) N 17.6 C 20.3 C
12.08.2004 10:00 23.0 C 73 % 1009.0 hPa 0.0 l/m 0.0 km/h (0 Bft) N 17.8 C 23.0 C
12.08.2004 11:00 25.0 C 65 % 1008.4 hPa 0.0 l/m 0.0 km/h (0 Bft) N 17.8 C 25.0 C
12.08.2004 12:00 26.6 C 56 % 1007.6 hPa 0.0 l/m 0.0 km/h (0 Bft) N 17.0 C 26.6 C
12.08.2004 13:00 28.6 C 46 % 1006.6 hPa 0.0 l/m 0.1 km/h (0 Bft) W 15.8 C 28.6 C
12.08.2004 14:00 30.2 C 38 % 1005.7 hPa 0.0 l/m 0.7 km/h (0 Bft) NW 14.4 C 30.2 C
12.08.2004 15:00 29.0 C 40 % 1004.7 hPa 0.0 l/m 5.0 km/h (1 Bft) W-NW 13.9 C 29.0 C
12.08.2004 16:00 21.6 C 76 % 1006.8 hPa 0.0 l/m 23.6 km/h (4 Bft) W-NW 17.1 C 21.6 C
12.08.2004 17:00 19.1 C 83 % 1009.5 hPa 1.9 l/m 55.1 km/h (7 Bft) NW 15.9 C 19.1 C
12.08.2004 18:00 15.6 C 92 % 1012.7 hPa 1.2 l/m 30.7 km/h (5 Bft) W-NW 14.4 C 15.6 C
12.08.2004 19:00 15.5 C 97 % 1013.1 hPa 0.6 l/m 2.3 km/h (1 Bft) O-NO 15.1 C 15.5 C
12.08.2004 20:00 15.4 C 99 % 1013.8 hPa 0.3 l/m 1.3 km/h (1 Bft) O-SO 15.3 C 15.4 C
12.08.2004 21:00 15.2 C 100 % 1014.1 hPa 0.0 l/m 0.1 km/h (0 Bft) SO 15.2 C 15.2 C
12.08.2004 22:00 14.9 C 100 % 1014.9 hPa 0.0 l/m 0.0 km/h (0 Bft) N 14.9 C 14.9 C
12.08.2004 23:00 15.2 C 100 % 1014.9 hPa 0.0 l/m 0.0 km/h (0 Bft) N 15.2 C 15.2 C
13.08.2004 00:00 15.2 C 100 % 1014.9 hPa 0.3 l/m 0.0 km/h (0 Bft) N 15.2 C 15.2 C
13.08.2004 01:00 14.4 C 100 % 1015.0 hPa 0.0 l/m 1.0 km/h (0 Bft) O-SO 14.4 C 14.4 C
13.08.2004 02:00 14.6 C 100 % 1014.0 hPa 0.0 l/m 0.0 km/h (0 Bft) N 14.6 C 14.6 C
13.08.2004 03:00 14.6 C 100 % 1014.1 hPa 0.6 l/m 2.6 km/h (1 Bft) NW 14.6 C 14.6 C
13.08.2004 04:00 14.5 C 100 % 1013.9 hPa 0.0 l/m 0.0 km/h (0 Bft) N 14.5 C 14.5 C
13.08.2004 05:00 14.8 C 100 % 1013.9 hPa 0.0 l/m 0.0 km/h (0 Bft) N 14.8 C 14.8 C
13.08.2004 06:00 14.8 C 100 % 1013.9 hPa 0.0 l/m 0.1 km/h (0 Bft) N 14.8 C 14.8 C
13.08.2004 07:00 15.4 C 100 % 1013.8 hPa 0.0 l/m 0.1 km/h (0 Bft) N 15.4 C 15.4 C
13.08.2004 08:00 15.9 C 100 % 1013.7 hPa 0.0 l/m 0.0 km/h (0 Bft) N 15.9 C 15.9 C
13.08.2004 09:00 16.8 C 100 % 1013.6 hPa 0.0 l/m 0.4 km/h (0 Bft) W 16.8 C 16.8 C
13.08.2004 10:00 18.0 C 81 % 1013.5 hPa 0.0 l/m 11.2 km/h (2 Bft) W-NW 14.6 C 18.0 C
13.08.2004 11:00 18.7 C 71 % 1013.4 hPa 0.0 l/m 17.8 km/h (3 Bft) W-NW 13.3 C 18.7 C
13.08.2004 12:00 19.2 C 64 % 1013.3 hPa 0.0 l/m 22.5 km/h (4 Bft) W-NW 12.3 C 19.2 C
13.08.2004 13:00 20.5 C 63 % 1013.0 hPa 0.0 l/m 11.9 km/h (2 Bft) W 13.0 C 20.5 C
13.08.2004 14:00 20.3 C 56 % 1013.2 hPa 0.0 l/m 33.6 km/h (5 Bft) W-NW 11.2 C 20.3 C
13.08.2004 15:00 21.6 C 50 % 1012.8 hPa 0.0 l/m 25.8 km/h (4 Bft) W-NW 10.8 C 21.6 C
13.08.2004 16:00 23.0 C 47 % 1011.8 hPa 0.0 l/m 21.6 km/h (4 Bft) W-NW 11.1 C 23.0 C
13.08.2004 17:00 19.3 C 70 % 1012.8 hPa 2.5 l/m 19.1 km/h (3 Bft) W-NW 13.1 C 19.3 C
13.08.2004 18:00 17.6 C 84 % 1013.5 hPa 0.9 l/m 17.0 km/h (3 Bft) W-NW 15.0 C 17.6 C
13.08.2004 19:00 16.6 C 85 % 1013.7 hPa 0.0 l/m 5.1 km/h (1 Bft) W-NW 14.2 C 16.6 C
13.08.2004 20:00 15.8 C 93 % 1014.8 hPa 0.0 l/m 0.5 km/h (0 Bft) NW 14.6 C 15.8 C
13.08.2004 21:00 15.4 C 93 % 1015.4 hPa 0.0 l/m 2.0 km/h (1 Bft) NO 14.3 C 15.4 C
13.08.2004 22:00 14.3 C 94 % 1016.0 hPa 0.0 l/m 3.2 km/h (1 Bft) W 13.4 C 14.3 C
13.08.2004 23:00 14.0 C 97 % 1016.1 hPa 0.0 l/m 0.3 km/h (0 Bft) S-SO 13.5 C 14.0 C
14.08.2004 00:00 14.0 C 99 % 1016.6 hPa 0.0 l/m 0.0 km/h (0 Bft) N 13.8 C 14.0 C
14.08.2004 01:00 14.4 C 100 % 1017.1 hPa 0.0 l/m 1.3 km/h (1 Bft) S-SO 14.3 C 14.4 C
14.08.2004 02:00 14.7 C 94 % 1017.0 hPa 0.0 l/m 1.9 km/h (1 Bft) O 13.8 C 14.7 C
14.08.2004 03:00 14.1 C 94 % 1016.8 hPa 0.0 l/m 1.9 km/h (1 Bft) O-SO 13.1 C 14.1 C
14.08.2004 04:00 14.6 C 94 % 1016.0 hPa 0.3 l/m 1.4 km/h (1 Bft) O-SO 13.7 C 14.6 C
14.08.2004 05:00 14.4 C 97 % 1017.0 hPa 0.0 l/m 3.3 km/h (1 Bft) SO 13.9 C 14.4 C
14.08.2004 06:00 14.8 C 98 % 1017.0 hPa 0.0 l/m 2.1 km/h (1 Bft) SO 14.4 C 14.8 C
14.08.2004 07:00 15.9 C 90 % 1016.9 hPa 0.0 l/m 8.8 km/h (2 Bft) W-NW 14.2 C 15.9 C
14.08.2004 08:00 16.2 C 81 % 1017.6 hPa 0.0 l/m 15.5 km/h (3 Bft) W-NW 13.0 C 16.2 C
14.08.2004 09:00 16.2 C 84 % 1018.0 hPa 0.0 l/m 6.3 km/h (2 Bft) W 13.5 C 16.2 C
14.08.2004 10:00 17.0 C 74 % 1018.8 hPa 0.0 l/m 19.7 km/h (3 Bft) W-NW 12.3 C 17.0 C
14.08.2004 11:00 17.6 C 69 % 1018.7 hPa 0.0 l/m 24.7 km/h (4 Bft) W-NW 11.9 C 17.6 C
14.08.2004 12:00 18.0 C 67 % 1018.9 hPa 0.0 l/m 29.9 km/h (5 Bft) W-NW 11.8 C 18.0 C
14.08.2004 13:00 18.6 C 64 % 1019.6 hPa 0.0 l/m 26.3 km/h (4 Bft) W-NW 11.7 C 18.6 C
14.08.2004 14:00 18.9 C 62 % 1019.6 hPa 0.0 l/m 27.7 km/h (4 Bft) W-NW 11.4 C 18.9 C
14.08.2004 15:00 18.9 C 61 % 1019.6 hPa 0.0 l/m 21.2 km/h (4 Bft) W-NW 11.2 C 18.9 C
14.08.2004 16:00 19.2 C 58 % 1020.1 hPa 0.0 l/m 30.5 km/h (5 Bft) W-NW 10.8 C 19.2 C
14.08.2004 17:00 19.9 C 54 % 1020.5 hPa 0.0 l/m 24.0 km/h (4 Bft) W-NW 10.4 C 19.9 C
14.08.2004 18:00 19.5 C 57 % 1020.5 hPa 0.0 l/m 18.3 km/h (3 Bft) W-NW 10.8 C 19.5 C
14.08.2004 19:00 18.3 C 67 % 1021.2 hPa 0.0 l/m 22.4 km/h (4 Bft) W-NW 12.0 C 18.3 C
14.08.2004 20:00 17.6 C 75 % 1022.0 hPa 0.0 l/m 18.2 km/h (3 Bft) W-NW 13.1 C 17.6 C
14.08.2004 21:00 17.3 C 78 % 1022.9 hPa 0.0 l/m 7.4 km/h (2 Bft) W-NW 13.5 C 17.3 C
14.08.2004 22:00 17.2 C 78 % 1022.9 hPa 0.0 l/m 5.7 km/h (1 Bft) W-NW 13.4 C 17.2 C
14.08.2004 23:00 16.6 C 81 % 1023.0 hPa 0.0 l/m 2.1 km/h (1 Bft) NW 13.2 C 16.6 C
15.08.2004 00:00 15.7 C 86 % 1023.1 hPa 0.0 l/m 0.5 km/h (0 Bft) S-SO 13.4 C 15.7 C
15.08.2004 01:00 14.9 C 90 % 1023.2 hPa 0.0 l/m 1.3 km/h (1 Bft) S-SO 13.2 C 14.9 C
15.08.2004 02:00 14.1 C 96 % 1023.3 hPa 0.0 l/m 3.1 km/h (1 Bft) S-SO 13.4 C 14.1 C
15.08.2004 03:00 13.6 C 97 % 1023.4 hPa 0.0 l/m 1.4 km/h (1 Bft) SO 13.1 C 13.6 C
15.08.2004 04:00 12.8 C 99 % 1023.8 hPa 0.0 l/m 3.4 km/h (1 Bft) SO 12.7 C 12.8 C
15.08.2004 05:00 12.5 C 100 % 1023.5 hPa 0.0 l/m 2.6 km/h (1 Bft) SO 12.5 C 12.5 C
15.08.2004 06:00 11.8 C 100 % 1023.6 hPa 0.0 l/m 2.2 km/h (1 Bft) SO 11.8 C 11.8 C
15.08.2004 07:00 12.7 C 100 % 1023.5 hPa 0.0 l/m 0.0 km/h (0 Bft) N 12.6 C 12.7 C
15.08.2004 08:00 14.5 C 96 % 1023.3 hPa 0.0 l/m 0.9 km/h (0 Bft) O-SO 13.8 C 14.5 C
15.08.2004 09:00 16.3 C 83 % 1023.0 hPa 0.0 l/m 0.1 km/h (0 Bft) SO 13.3 C 16.3 C
15.08.2004 10:00 18.4 C 69 % 1022.8 hPa 0.0 l/m 2.7 km/h (1 Bft) W-NW 12.5 C 18.4 C
15.08.2004 11:00 20.3 C 61 % 1022.3 hPa 0.0 l/m 2.2 km/h (1 Bft) W-NW 12.4 C 20.3 C
15.08.2004 12:00 22.3 C 55 % 1021.2 hPa 0.0 l/m 3.1 km/h (1 Bft) O-SO 12.9 C 22.3 C
15.08.2004 13:00 24.0 C 50 % 1020.4 hPa 0.0 l/m 4.7 km/h (1 Bft) O-SO 12.8 C 24.0 C
15.08.2004 14:00 24.7 C 45 % 1019.9 hPa 0.0 l/m 3.6 km/h (1 Bft) O-SO 11.9 C 24.7 C
15.08.2004 15:00 26.1 C 41 % 1018.9 hPa 0.0 l/m 4.0 km/h (1 Bft) O-SO 11.6 C 26.1 C
15.08.2004 16:00 26.1 C 39 % 1018.4 hPa 0.0 l/m 5.0 km/h (1 Bft) O-SO 10.9 C 26.1 C
15.08.2004 17:00 26.1 C 37 % 1017.5 hPa 0.0 l/m 5.4 km/h (1 Bft) O-SO 10.4 C 26.1 C
15.08.2004 18:00 25.7 C 39 % 1016.7 hPa 0.0 l/m 1.6 km/h (1 Bft) O-SO 10.8 C 25.7 C
15.08.2004 19:00 24.5 C 43 % 1016.8 hPa 0.0 l/m 0.5 km/h (0 Bft) O-SO 10.9 C 24.5 C
15.08.2004 20:00 21.3 C 59 % 1017.2 hPa 0.0 l/m 7.1 km/h (2 Bft) O-SO 12.8 C 21.3 C
15.08.2004 21:00 18.4 C 73 % 1017.6 hPa 0.0 l/m 0.2 km/h (0 Bft) N 13.3 C 18.4 C
15.08.2004 22:00 16.6 C 83 % 1017.8 hPa 0.0 l/m 0.6 km/h (0 Bft) O 13.8 C 16.6 C
15.08.2004 23:00 15.0 C 91 % 1018.0 hPa 0.0 l/m 0.3 km/h (0 Bft) O 13.5 C 15.0 C
Min-Datum _ 15.08.04 12.08.04 12.08.04 - 09.08.04 - 13.08.04 15.08.04
_ Min-Zeit 06:24 15:09 15:39 - 00:00 - 17:27 06:24
Minimum _ 11.5 C 33 % 1003.9 hPa - 0.0 km/h (0 Bft) - 7.8 C 11.5 C
Max-Datum _ 12.08.04 09.08.04 15.08.04 11.08.04 12.08.04 - 11.08.04 12.08.04
_ Max-Zeit 15:06 06:51 04:03 00:06 17:40 - 09:57 15:06
Maximum _ 31.2 C 100 % 1024.5 hPa 8.4 l/m 108.3 km/h
NW (11 Bft)
- 20.7 C 31.2 C
Durchschnitt _ 19.7 C 78 % 1014.1 hPa #21.1 l/m 5.3 km/h (1 Bft) W-NW 15.1 C 19.7 C

Durchschnitt Minimum Temp.18.9 C
Durchschnitt Maximum Temp.20.6 C
© Kaiko 2004